Time;durP1;ratioP1;P1;durP2;ratioP2;P2;SDS_P1;SDS_P2;PMS_P1;PMS_P2;Temp;Humidity;BMP_temperature;BMP_pressure;BME280_temperature;BME280_humidity;BME280_pressure;Samples;Min_cycle;Max_cycle;Signal;HPM_P1;HPM_P2
2023/11/15 00:00:29;;;;;;;16.60;3.50;;;;;;;10.89;100.00;100841.25;6083677;19;20007;-74
2023/11/15 00:02:35;;;;;;;16.05;4.43;;;;;;;10.89;100.00;100845.66;6084605;19;20010;-75
2023/11/15 00:04:40;;;;;;;20.77;4.65;;;;;;;10.87;100.00;100842.22;6085089;19;20078;-75
2023/11/15 00:06:45;;;;;;;17.92;4.15;;;;;;;10.83;100.00;100841.53;6083324;19;20023;-74
2023/11/15 00:08:51;;;;;;;16.08;3.60;;;;;;;10.86;100.00;100846.66;6084988;19;20022;-75
2023/11/15 00:10:56;;;;;;;13.80;3.50;;;;;;;10.81;100.00;100843.34;6084353;19;20103;-75
2023/11/15 00:13:02;;;;;;;10.93;3.10;;;;;;;10.87;100.00;100848.34;6084679;19;20003;-75
2023/11/15 00:15:08;;;;;;;14.93;3.75;;;;;;;10.80;100.00;100841.66;6082161;19;20050;-75
2023/11/15 00:17:14;;;;;;;11.35;3.17;;;;;;;10.86;100.00;100849.28;6083314;19;20052;-75
2023/11/15 00:19:21;;;;;;;14.80;4.50;;;;;;;10.85;100.00;100855.47;6082043;19;20038;-74
2023/11/15 00:21:25;;;;;;;17.77;3.50;;;;;;;10.82;100.00;100850.34;6082809;19;20010;-75
2023/11/15 00:23:31;;;;;;;14.85;3.90;;;;;;;10.82;100.00;100855.59;6076050;19;20240;-75
2023/11/15 00:25:36;;;;;;;13.00;3.30;;;;;;;10.76;100.00;100855.81;6081181;19;20002;-75
2023/11/15 00:27:41;;;;;;;14.82;3.42;;;;;;;10.77;100.00;100863.66;6083827;19;20081;-77
2023/11/15 00:29:46;;;;;;;14.27;3.58;;;;;;;10.73;100.00;100861.22;6083515;19;20006;-70
2023/11/15 00:31:52;;;;;;;18.92;4.15;;;;;;;10.73;100.00;100866.47;6080941;19;20482;-70
2023/11/15 00:34:00;;;;;;;20.25;4.10;;;;;;;10.71;100.00;100873.56;6081587;19;20034;-74
2023/11/15 00:36:11;;;;;;;11.35;3.30;;;;;;;10.67;100.00;100869.34;6077631;19;20007;-72
2023/11/15 00:38:17;;;;;;;13.00;3.63;;;;;;;10.67;100.00;100869.34;6079384;19;20343;-72
2023/11/15 00:40:23;;;;;;;16.42;3.60;;;;;;;10.61;100.00;100882.72;6084344;19;20011;-72
2023/11/15 00:42:25;;;;;;;15.57;3.42;;;;;;;10.59;100.00;100879.31;6090801;19;20010;-75
2023/11/15 00:44:35;;;;;;;14.68;3.47;;;;;;;10.69;100.00;100883.25;6091367;19;20287;-74
2023/11/15 00:46:42;;;;;;;23.00;4.85;;;;;;;10.63;100.00;100887.00;6092104;19;20023;-77
2023/11/15 00:48:50;;;;;;;13.52;3.65;;;;;;;10.58;100.00;100888.94;6091561;19;20007;-74
2023/11/15 00:50:55;;;;;;;12.63;4.18;;;;;;;10.59;100.00;100892.47;6090517;19;19999;-73
2023/11/15 00:53:02;;;;;;;17.63;4.40;;;;;;;10.54;100.00;100903.16;6082185;19;20134;-71
2023/11/15 00:55:10;;;;;;;10.57;3.28;;;;;;;10.49;100.00;100884.06;6089201;19;20014;-70
2023/11/15 00:57:15;;;;;;;22.08;3.80;;;;;;;10.48;100.00;100899.00;6088220;19;20362;-70
2023/11/15 00:59:27;;;;;;;13.95;3.80;;;;;;;10.48;100.00;100898.13;6088647;19;20011;-75
2023/11/15 01:01:36;;;;;;;14.55;3.72;;;;;;;10.51;100.00;100900.66;6090099;19;20017;-77
2023/11/15 01:03:55;;;;;;;11.88;3.35;;;;;;;10.61;100.00;100902.00;6088619;19;20379;-71
2023/11/15 01:06:01;;;;;;;12.13;3.28;;;;;;;10.58;100.00;100903.88;6090512;19;20078;-74
2023/11/15 01:08:07;;;;;;;11.95;3.65;;;;;;;10.52;100.00;100907.59;6089320;19;20014;-71
2023/11/15 01:10:13;;;;;;;17.23;4.40;;;;;;;10.53;100.00;100911.94;6089569;19;20523;-71
2023/11/15 01:12:19;;;;;;;12.65;3.80;;;;;;;10.52;100.00;100918.97;6085264;19;20078;-74
2023/11/15 01:14:21;;;;;;;15.25;3.58;;;;;;;10.53;100.00;100917.19;6090513;19;20023;-76
2023/11/15 01:16:27;;;;;;;14.15;4.30;;;;;;;10.46;100.00;100921.84;6091904;19;20466;-74
2023/11/15 01:18:33;;;;;;;14.98;4.05;;;;;;;10.61;100.00;100914.25;6091965;19;20545;-74
2023/11/15 01:20:38;;;;;;;14.80;2.78;;;;;;;10.54;100.00;100916.28;6090519;19;20002;-75
2023/11/15 01:22:43;;;;;;;10.27;4.03;;;;;;;10.58;100.00;100924.88;6088929;19;20027;-74
2023/11/15 01:24:52;;;;;;;18.65;3.45;;;;;;;10.61;100.00;100930.03;6092501;19;20023;-75
2023/11/15 01:26:57;;;;;;;13.93;3.00;;;;;;;10.61;100.00;100922.13;6091984;19;20024;-73
2023/11/15 01:29:02;;;;;;;25.65;4.28;;;;;;;10.70;100.00;100933.16;6092143;19;20006;-75
2023/11/15 01:31:07;;;;;;;9.45;3.70;;;;;;;10.65;100.00;100935.09;6092298;19;20049;-76
2023/11/15 01:33:10;;;;;;;16.08;3.20;;;;;;;10.66;100.00;100943.84;6094783;19;20025;-74
2023/11/15 01:35:18;;;;;;;13.38;3.15;;;;;;;10.68;100.00;100942.00;6095875;19;20564;-73
2023/11/15 01:37:23;;;;;;;13.57;3.67;;;;;;;10.64;100.00;100946.53;6091099;19;20480;-73
2023/11/15 01:39:32;;;;;;;20.13;3.72;;;;;;;10.66;100.00;100952.56;6087818;19;20412;-74
2023/11/15 01:41:37;;;;;;;12.23;2.97;;;;;;;10.61;100.00;100951.94;6092340;19;20558;-73
2023/11/15 01:43:45;;;;;;;13.93;2.83;;;;;;;10.62;100.00;100963.28;6091810;19;20098;-73
2023/11/15 01:45:51;;;;;;;13.20;3.53;;;;;;;10.60;100.00;100951.97;6094624;19;20046;-73
2023/11/15 01:47:57;;;;;;;14.60;3.13;;;;;;;10.66;100.00;100952.56;6092353;19;20024;-74
2023/11/15 01:50:04;;;;;;;15.25;3.03;;;;;;;10.65;100.00;100963.16;6093440;19;20002;-74
2023/11/15 01:52:12;;;;;;;11.43;2.85;;;;;;;10.69;100.00;100970.00;6090623;19;20041;-74
2023/11/15 01:54:19;;;;;;;12.48;3.42;;;;;;;10.72;100.00;100985.69;6089251;19;20010;-74
2023/11/15 01:56:24;;;;;;;9.50;2.60;;;;;;;10.70;100.00;100984.88;6090832;19;20042;-74
2023/11/15 01:58:26;;;;;;;12.70;4.28;;;;;;;10.66;100.00;100986.75;6087518;19;20011;-74
2023/11/15 02:00:35;;;;;;;12.50;3.13;;;;;;;10.74;100.00;100981.19;6088285;19;20017;-72
2023/11/15 02:02:39;;;;;;;16.25;4.03;;;;;;;10.72;100.00;100989.16;6086970;19;20074;-72
2023/11/15 02:04:44;;;;;;;10.65;3.30;;;;;;;10.69;100.00;100993.66;6089837;19;20801;-72
2023/11/15 02:06:49;;;;;;;15.35;4.00;;;;;;;10.66;100.00;100986.75;6088626;19;20572;-72
2023/11/15 02:09:00;;;;;;;16.88;3.40;;;;;;;10.61;100.00;100991.34;6088892;19;20050;-72
2023/11/15 02:11:08;;;;;;;13.40;3.20;;;;;;;10.65;100.00;100998.19;6088513;19;20066;-72
2023/11/15 02:13:25;;;;;;;9.65;3.35;;;;;;;10.67;100.00;101003.38;6087856;19;20027;-72
2023/11/15 02:15:31;;;;;;;20.35;3.40;;;;;;;10.65;100.00;100995.56;6077009;19;20499;-73
2023/11/15 02:17:38;;;;;;;16.00;3.05;;;;;;;10.65;100.00;101005.22;6087808;19;20010;-72
2023/11/15 02:19:44;;;;;;;18.77;4.00;;;;;;;10.64;100.00;101006.13;6081566;19;20010;-74
2023/11/15 02:21:46;;;;;;;14.48;3.38;;;;;;;10.63;100.00;101009.66;6087372;19;20029;-74
2023/11/15 02:23:57;;;;;;;15.63;3.53;;;;;;;10.64;100.00;101006.13;6086648;19;20010;-74
2023/11/15 02:26:02;;;;;;;12.00;3.22;;;;;;;10.55;100.00;101016.06;6088753;19;20729;-75
2023/11/15 02:28:08;;;;;;;16.75;3.90;;;;;;;10.54;100.00;101008.25;6086201;19;20013;-74
2023/11/15 02:30:14;;;;;;;12.57;3.55;;;;;;;10.58;100.00;101014.22;6086765;19;20504;-74
2023/11/15 02:32:20;;;;;;;12.98;3.67;;;;;;;10.57;100.00;101013.38;6088114;19;20010;-74
2023/11/15 02:34:25;;;;;;;25.50;3.83;;;;;;;10.55;100.00;101016.06;6087800;19;20037;-74
2023/11/15 02:36:30;;;;;;;11.98;3.35;;;;;;;10.55;100.00;101020.47;6088475;19;20013;-74
2023/11/15 02:38:38;;;;;;;13.93;3.25;;;;;;;10.53;100.00;101028.41;6082082;19;20568;-74
2023/11/15 02:40:46;;;;;;;17.30;3.63;;;;;;;10.57;100.00;101023.03;6083629;19;20010;-74
2023/11/15 02:42:52;;;;;;;12.60;3.47;;;;;;;10.57;100.00;101030.94;6085790;19;20010;-72
2023/11/15 02:44:57;;;;;;;12.02;3.55;;;;;;;10.60;100.00;101022.94;6087497;19;20003;-75
2023/11/15 02:47:02;;;;;;;13.57;5.30;;;;;;;10.66;100.00;101027.94;6087370;19;20046;-75
2023/11/15 02:49:09;;;;;;;10.23;2.83;;;;;;;10.62;100.00;101029.00;6086777;19;20011;-75
2023/11/15 02:51:14;;;;;;;9.50;3.28;;;;;;;10.63;100.00;101023.66;6086576;19;20458;-75
2023/11/15 02:53:18;;;;;;;18.95;3.25;;;;;;;10.61;100.00;101030.75;6083781;19;20014;-75
2023/11/15 02:55:24;;;;;;;12.77;2.95;;;;;;;10.65;100.00;101027.09;6087744;19;20009;-74
2023/11/15 02:57:30;;;;;;;22.90;3.28;;;;;;;10.61;100.00;101027.25;6087721;19;20006;-73
2023/11/15 02:59:35;;;;;;;10.80;4.05;;;;;;;10.63;100.00;101028.91;6078476;19;20507;-72
2023/11/15 03:01:51;;;;;;;14.00;3.70;;;;;;;10.64;100.00;101028.00;6083062;19;20006;-73
2023/11/15 03:03:56;;;;;;;9.25;3.08;;;;;;;10.65;100.00;101028.88;6085519;19;20008;-73
2023/11/15 03:06:02;;;;;;;11.40;2.92;;;;;;;10.65;100.00;101036.75;6086941;19;20041;-75
2023/11/15 03:08:08;;;;;;;20.08;3.50;;;;;;;10.62;100.00;101032.47;6088321;19;20375;-75
2023/11/15 03:10:13;;;;;;;15.35;3.17;;;;;;;10.62;100.00;101042.13;6085929;19;20024;-75
2023/11/15 03:12:19;;;;;;;9.77;3.05;;;;;;;10.54;100.00;101027.50;6081144;19;20006;-75
2023/11/15 03:14:25;;;;;;;13.02;3.38;;;;;;;10.50;100.00;101031.13;6085381;19;20509;-75
2023/11/15 03:16:30;;;;;;;15.07;3.30;;;;;;;10.55;100.00;101042.34;6086485;19;20041;-73
2023/11/15 03:18:36;;;;;;;8.43;2.95;;;;;;;10.51;100.00;101038.13;6084119;19;20006;-73
2023/11/15 03:20:43;;;;;;;11.52;2.95;;;;;;;10.61;100.00;101043.03;6086219;19;20011;-73
2023/11/15 03:22:49;;;;;;;12.45;3.20;;;;;;;10.59;100.00;101039.63;6086373;19;20010;-73
2023/11/15 03:24:52;;;;;;;17.33;3.95;;;;;;;10.64;100.00;101038.53;6085827;19;20598;-75
2023/11/15 03:26:57;;;;;;;17.35;3.38;;;;;;;10.67;100.00;101045.44;6086259;19;20013;-75
2023/11/15 03:29:02;;;;;;;10.88;3.00;;;;;;;10.59;100.00;101047.50;6084380;19;20037;-75
2023/11/15 03:31:10;;;;;;;12.05;3.25;;;;;;;10.59;100.00;101048.34;6087001;19;20014;-75
2023/11/15 03:33:17;;;;;;;12.32;2.53;;;;;;;10.60;100.00;101057.09;6085796;19;20086;-75
2023/11/15 03:35:23;;;;;;;11.55;3.08;;;;;;;10.65;100.00;101055.16;6087661;19;20336;-75
2023/11/15 03:37:32;;;;;;;10.05;2.50;;;;;;;10.63;100.00;101060.44;6085830;19;20027;-75
2023/11/15 03:39:34;;;;;;;17.95;3.47;;;;;;;10.67;100.00;101055.97;6085943;19;20030;-76
2023/11/15 03:41:42;;;;;;;12.75;2.60;;;;;;;10.62;100.00;101063.16;6079377;19;20010;-75
2023/11/15 03:43:48;;;;;;;13.80;3.80;;;;;;;10.59;100.00;101064.13;6084530;19;20348;-75
2023/11/15 03:45:56;;;;;;;11.68;2.80;;;;;;;10.62;100.00;101057.91;6088057;19;20010;-75
2023/11/15 03:48:05;;;;;;;12.60;3.38;;;;;;;10.64;100.00;101066.59;6088122;19;20041;-74
2023/11/15 03:50:11;;;;;;;12.15;3.53;;;;;;;10.67;100.00;101063.84;6088696;19;20011;-74
2023/11/15 03:52:16;;;;;;;10.00;2.80;;;;;;;10.60;100.00;101059.72;6086780;19;20007;-74
2023/11/15 03:54:22;;;;;;;12.75;4.32;;;;;;;10.59;100.00;101068.53;6086561;19;20011;-75
2023/11/15 03:56:27;;;;;;;13.77;3.75;;;;;;;10.64;100.00;101071.84;6089444;19;20022;-74
2023/11/15 03:58:33;;;;;;;11.43;2.50;;;;;;;10.62;100.00;101074.50;6088660;19;20381;-74
2023/11/15 04:00:38;;;;;;;11.02;2.95;;;;;;;10.63;100.00;101070.09;6081051;19;20013;-74
2023/11/15 04:02:42;;;;;;;11.20;4.28;;;;;;;10.63;100.00;101070.09;6085936;19;20011;-74
2023/11/15 04:04:50;;;;;;;13.05;2.42;;;;;;;10.66;100.00;101078.72;6087803;19;20011;-75
2023/11/15 04:06:57;;;;;;;9.52;2.58;;;;;;;10.66;100.00;101076.09;6087259;19;20479;-74
2023/11/15 04:09:03;;;;;;;19.75;3.38;;;;;;;10.68;100.00;101084.78;6085081;19;20363;-73
2023/11/15 04:11:08;;;;;;;6.97;2.50;;;;;;;10.67;100.00;101084.88;6086991;19;20601;-72
2023/11/15 04:13:14;;;;;;;14.40;3.40;;;;;;;10.65;100.00;101087.53;6085178;19;20021;-73
2023/11/15 04:15:19;;;;;;;11.05;3.25;;;;;;;10.63;100.00;101088.50;6084693;19;20009;-72
2023/11/15 04:17:24;;;;;;;20.45;4.00;;;;;;;10.68;100.00;101100.56;6080047;19;20013;-73
2023/11/15 04:19:32;;;;;;;12.40;2.90;;;;;;;10.73;100.00;101095.13;6084974;19;20527;-72
2023/11/15 04:21:40;;;;;;;10.75;2.92;;;;;;;10.72;100.00;101106.56;6087153;19;20002;-75
2023/11/15 04:23:45;;;;;;;14.63;2.42;;;;;;;10.71;100.00;101107.47;6087300;19;20363;-76
2023/11/15 04:25:47;;;;;;;10.38;2.78;;;;;;;10.68;100.00;101104.97;6086496;19;20011;-75
2023/11/15 04:27:52;;;;;;;18.67;3.25;;;;;;;10.72;100.00;101110.06;6086083;19;20452;-74
2023/11/15 04:29:57;;;;;;;11.90;2.80;;;;;;;10.72;100.00;101122.34;6086104;19;20057;-73
2023/11/15 04:32:02;;;;;;;13.77;3.28;;;;;;;10.70;100.00;101105.78;6084650;19;20006;-73
2023/11/15 04:34:08;;;;;;;12.13;2.63;;;;;;;10.69;100.00;101118.06;6085982;19;20669;-73
2023/11/15 04:36:14;;;;;;;8.32;2.50;;;;;;;10.66;100.00;101112.91;6084217;19;20027;-73
2023/11/15 04:38:21;;;;;;;17.35;3.22;;;;;;;10.65;100.00;101126.97;6084210;19;20458;-73
2023/11/15 04:40:26;;;;;;;13.13;2.88;;;;;;;10.61;100.00;101124.50;6087701;19;20010;-73
2023/11/15 04:42:31;;;;;;;15.60;3.22;;;;;;;10.56;100.00;101127.31;6087675;19;20511;-74
2023/11/15 04:44:36;;;;;;;10.48;3.20;;;;;;;10.61;100.00;101125.38;6090202;19;20015;-73
2023/11/15 04:46:42;;;;;;;8.95;2.63;;;;;;;10.53;100.00;101123.00;6091078;19;20007;-73
2023/11/15 04:48:47;;;;;;;7.93;2.47;;;;;;;10.60;100.00;101126.25;6091006;19;20078;-73
2023/11/15 04:50:52;;;;;;;11.15;3.55;;;;;;;10.55;100.00;101128.19;6091512;19;20033;-73
2023/11/15 04:53:00;;;;;;;11.35;2.85;;;;;;;10.55;100.00;101139.56;6087909;19;20289;-74
2023/11/15 04:55:09;;;;;;;13.10;3.00;;;;;;;10.64;100.00;101135.75;6090930;19;20565;-74
2023/11/15 04:57:15;;;;;;;14.48;3.25;;;;;;;10.60;100.00;101141.19;6088530;19;20003;-75
2023/11/15 04:59:21;;;;;;;7.43;2.42;;;;;;;10.60;100.00;101143.81;6090843;19;20006;-74
2023/11/15 05:01:26;;;;;;;8.63;2.78;;;;;;;10.54;100.00;101148.38;6090068;19;20003;-74
2023/11/15 05:03:31;;;;;;;7.90;2.78;;;;;;;10.51;100.00;101140.59;6084717;19;20589;-76
2023/11/15 05:05:36;;;;;;;8.35;3.15;;;;;;;10.47;100.00;101144.22;6088593;19;20037;-74
2023/11/15 05:07:43;;;;;;;9.20;2.90;;;;;;;10.43;100.00;101141.78;6091031;19;20135;-72
2023/11/15 05:09:48;;;;;;;10.07;2.63;;;;;;;10.41;100.00;101147.09;6091118;19;20015;-73
2023/11/15 05:11:55;;;;;;;11.27;2.72;;;;;;;10.44;100.00;101146.13;6086966;19;20018;-74
2023/11/15 05:13:58;;;;;;;8.00;3.13;;;;;;;10.43;100.00;101152.31;6090421;19;20504;-74
2023/11/15 05:16:03;;;;;;;7.43;2.75;;;;;;;10.42;100.00;101146.16;6088485;19;20010;-74
2023/11/15 05:18:09;;;;;;;17.23;4.05;;;;;;;10.48;100.00;101150.38;6091263;19;20078;-74
2023/11/15 05:20:15;;;;;;;6.60;3.17;;;;;;;10.42;100.00;101151.41;6090521;19;20020;-74
2023/11/15 05:22:21;;;;;;;13.43;3.08;;;;;;;10.44;100.00;101162.75;6084327;19;20482;-74
2023/11/15 05:24:27;;;;;;;12.02;2.90;;;;;;;10.42;100.00;101155.81;6090081;19;20011;-74
2023/11/15 05:26:32;;;;;;;15.77;3.83;;;;;;;10.44;100.00;101165.38;6088688;19;20393;-74
2023/11/15 05:28:40;;;;;;;12.88;3.03;;;;;;;10.44;100.00;101168.00;6088412;19;20126;-75
2023/11/15 05:30:42;;;;;;;9.63;2.78;;;;;;;10.47;100.00;101167.88;6090958;19;20375;-74
2023/11/15 05:32:47;;;;;;;14.05;3.42;;;;;;;10.47;100.00;101169.66;6088489;19;20011;-74
2023/11/15 05:34:52;;;;;;;7.43;3.42;;;;;;;10.43;100.00;101168.91;6086329;19;20007;-74
2023/11/15 05:37:00;;;;;;;11.77;3.45;;;;;;;10.46;100.00;101171.44;6087536;19;20473;-74
2023/11/15 05:39:06;;;;;;;14.02;2.80;;;;;;;10.47;100.00;101172.28;6088072;19;20011;-74
2023/11/15 05:41:11;;;;;;;11.88;3.05;;;;;;;10.42;100.00;101164.56;6091188;19;20470;-74
2023/11/15 05:43:13;;;;;;;11.10;3.08;;;;;;;10.42;100.00;101172.44;6087474;19;20011;-72
2023/11/15 05:45:21;;;;;;;8.18;3.20;;;;;;;10.43;100.00;101170.69;6089469;19;20014;-73
2023/11/15 05:47:27;;;;;;;15.80;3.20;;;;;;;10.38;100.00;101176.09;6089276;19;20007;-72
2023/11/15 05:49:33;;;;;;;14.82;3.53;;;;;;;10.33;100.00;101173.63;6088754;19;20074;-74
2023/11/15 05:51:40;;;;;;;16.85;3.60;;;;;;;10.28;100.00;101177.31;6088764;19;20312;-72
2023/11/15 05:53:45;;;;;;;12.48;3.08;;;;;;;10.17;100.00;101182.03;6083595;19;20009;-73
2023/11/15 05:55:50;;;;;;;13.18;2.72;;;;;;;10.15;100.00;101179.47;6088278;19;20015;-74
2023/11/15 05:57:57;;;;;;;14.30;3.00;;;;;;;10.11;100.00;101183.97;6085765;19;20486;-75
2023/11/15 06:00:05;;;;;;;12.05;2.65;;;;;;;10.08;100.00;101178.81;6088081;19;20037;-74
2023/11/15 06:02:13;;;;;;;13.52;3.30;;;;;;;10.10;100.00;101181.38;6088670;19;20471;-74
2023/11/15 06:04:18;;;;;;;8.88;2.65;;;;;;;10.17;100.00;101182.03;6087795;19;20014;-73
2023/11/15 06:06:24;;;;;;;14.15;2.53;;;;;;;10.17;100.00;101182.03;6087374;19;20006;-74
2023/11/15 06:08:29;;;;;;;9.98;2.50;;;;;;;10.12;100.00;101179.56;6085329;19;20033;-73
2023/11/15 06:10:34;;;;;;;8.73;2.58;;;;;;;10.09;100.00;101190.19;6084799;19;20010;-75
2023/11/15 06:12:37;;;;;;;13.18;2.63;;;;;;;10.08;100.00;101186.69;6086174;19;20027;-72
2023/11/15 06:14:43;;;;;;;11.98;2.72;;;;;;;10.16;100.00;101191.66;6087920;19;20031;-72
2023/11/15 06:16:48;;;;;;;8.10;2.42;;;;;;;10.16;100.00;101188.19;6087551;19;20081;-73
2023/11/15 06:18:55;;;;;;;9.57;2.40;;;;;;;10.15;100.00;101192.59;6081791;19;20011;-74
2023/11/15 06:21:01;;;;;;;11.07;3.30;;;;;;;10.07;100.00;101190.22;6086021;19;20006;-74
2023/11/15 06:23:06;;;;;;;13.85;2.95;;;;;;;10.06;100.00;101198.16;6085210;19;20017;-73
2023/11/15 06:25:11;;;;;;;10.77;2.53;;;;;;;10.03;100.00;101193.88;6088387;19;20465;-73
2023/11/15 06:27:17;;;;;;;14.93;4.30;;;;;;;10.03;100.00;101199.13;6088022;19;20078;-73
2023/11/15 06:29:22;;;;;;;10.80;2.80;;;;;;;10.08;100.00;101202.44;6088110;19;20357;-73
2023/11/15 06:31:29;;;;;;;9.70;2.90;;;;;;;10.13;100.00;101209.31;6085918;19;19998;-73
2023/11/15 06:33:34;;;;;;;16.92;3.55;;;;;;;10.21;100.00;101207.28;6088208;19;20033;-73
2023/11/15 06:35:44;;;;;;;10.40;2.92;;;;;;;10.18;100.00;101205.63;6085290;19;20265;-73
2023/11/15 06:37:51;;;;;;;9.10;2.88;;;;;;;10.21;100.00;101217.78;6082962;19;20527;-73
2023/11/15 06:39:56;;;;;;;11.27;3.03;;;;;;;10.25;100.00;101216.78;6085384;19;20006;-73
2023/11/15 06:42:03;;;;;;;12.40;3.22;;;;;;;10.24;100.00;101210.69;6087818;19;20019;-72
2023/11/15 06:44:08;;;;;;;12.40;3.03;;;;;;;10.21;100.00;101217.78;6087022;19;20275;-74
2023/11/15 06:46:18;;;;;;;12.18;2.95;;;;;;;10.24;100.00;101215.94;6087707;19;20032;-73
2023/11/15 06:48:23;;;;;;;6.57;3.08;;;;;;;10.28;100.00;101221.97;6087850;19;20597;-74
2023/11/15 06:50:29;;;;;;;16.30;3.50;;;;;;;10.29;100.00;101223.69;6086271;19;20042;-74
2023/11/15 06:52:37;;;;;;;12.50;2.67;;;;;;;10.32;100.00;101213.94;6085396;19;20066;-73
2023/11/15 06:54:43;;;;;;;9.45;2.58;;;;;;;10.29;100.00;101228.94;6087517;19;20015;-74
2023/11/15 06:56:48;;;;;;;15.63;3.30;;;;;;;10.26;100.00;101227.22;6085507;19;20009;-74
2023/11/15 06:58:53;;;;;;;10.07;2.50;;;;;;;10.28;100.00;101232.47;6084988;19;20003;-74
2023/11/15 07:00:59;;;;;;;12.80;3.17;;;;;;;10.23;100.00;101229.97;6084532;19;19999;-74
2023/11/15 07:03:06;;;;;;;14.70;3.35;;;;;;;10.28;100.00;101233.31;6087937;19;20598;-74
2023/11/15 07:05:13;;;;;;;12.98;2.85;;;;;;;10.22;100.00;101235.28;6085972;19;20038;-73
2023/11/15 07:07:21;;;;;;;17.45;3.60;;;;;;;10.27;100.00;101234.25;6088509;19;20017;-74
2023/11/15 07:09:27;;;;;;;14.55;2.65;;;;;;;10.23;100.00;101250.13;6082481;19;20442;-72
2023/11/15 07:11:32;;;;;;;11.82;2.97;;;;;;;10.13;100.00;101241.66;6086666;19;20491;-74
2023/11/15 07:13:36;;;;;;;10.48;2.83;;;;;;;10.08;100.00;101252.34;6082972;19;20052;-74
2023/11/15 07:15:44;;;;;;;10.48;2.50;;;;;;;10.14;100.00;101235.53;6086540;19;20037;-75
2023/11/15 07:17:54;;;;;;;12.43;3.70;;;;;;;10.12;100.00;101255.72;6088836;19;20007;-75
2023/11/15 07:19:59;;;;;;;11.07;2.88;;;;;;;10.02;100.00;101252.50;6080628;19;20395;-74
2023/11/15 07:22:04;;;;;;;8.20;3.00;;;;;;;10.07;100.00;101258.47;6090441;19;20007;-73
2023/11/15 07:24:12;;;;;;;12.10;3.75;;;;;;;10.04;100.00;101258.59;6090946;19;20611;-75
2023/11/15 07:26:21;;;;;;;15.85;2.80;;;;;;;10.04;100.00;101260.34;6088806;19;20086;-72
2023/11/15 07:28:27;;;;;;;13.15;2.63;;;;;;;10.05;100.00;101262.91;6091173;19;20038;-75
2023/11/15 07:30:31;;;;;;;12.88;2.58;;;;;;;10.02;100.00;101264.78;6095812;19;20007;-74
2023/11/15 07:32:36;;;;;;;10.50;2.78;;;;;;;10.08;100.00;101262.84;6094970;19;20065;-74
2023/11/15 07:34:42;;;;;;;12.68;2.85;;;;;;;10.20;100.00;101272.09;6092974;19;20014;-75
2023/11/15 07:36:48;;;;;;;10.43;2.53;;;;;;;10.14;100.00;101276.66;6090759;19;20003;-73
2023/11/15 07:38:53;;;;;;;10.30;3.00;;;;;;;10.14;100.00;101282.78;6088220;19;20038;-72
2023/11/15 07:40:58;;;;;;;7.85;2.67;;;;;;;10.21;100.00;101281.66;6089609;19;20617;-73
2023/11/15 07:43:10;;;;;;;9.18;2.50;;;;;;;10.23;100.00;101285.13;6086330;19;20033;-75
2023/11/15 07:45:18;;;;;;;19.90;3.33;;;;;;;10.16;100.00;101280.97;6085432;19;20112;-75
2023/11/15 07:47:23;;;;;;;9.75;3.33;;;;;;;10.16;100.00;101295.88;6086413;19;20136;-74
2023/11/15 07:49:28;;;;;;;16.08;3.95;;;;;;;10.17;100.00;101302.84;6076995;19;20234;-73
2023/11/15 07:51:35;;;;;;;19.25;3.30;;;;;;;10.23;100.00;101294.78;6084806;19;20422;-73
2023/11/15 07:53:40;;;;;;;17.35;3.13;;;;;;;10.23;100.00;101306.13;6077434;19;20023;-73
2023/11/15 07:55:45;;;;;;;16.48;2.90;;;;;;;10.32;100.00;101297.13;6084635;19;20019;-73
2023/11/15 07:57:51;;;;;;;8.75;2.95;;;;;;;10.33;100.00;101299.72;6078291;19;20003;-73
2023/11/15 07:59:58;;;;;;;22.92;3.08;;;;;;;10.42;100.00;101306.44;6081788;19;20078;-73
2023/11/15 08:02:07;;;;;;;17.55;3.28;;;;;;;10.46;100.00;101309.84;6085247;19;20049;-74
2023/11/15 08:04:12;;;;;;;17.77;3.45;;;;;;;10.50;100.00;101306.19;6086258;19;20045;-75
2023/11/15 08:06:17;;;;;;;11.13;2.67;;;;;;;10.52;100.00;101305.22;6082668;19;20300;-74
2023/11/15 08:08:23;;;;;;;17.92;2.97;;;;;;;10.53;100.00;101309.59;6084014;19;20015;-74
2023/11/15 08:10:30;;;;;;;17.70;2.63;;;;;;;10.51;100.00;101318.44;6081314;19;20006;-74
2023/11/15 08:12:37;;;;;;;14.85;3.53;;;;;;;10.50;100.00;101317.53;6082640;19;20314;-73
2023/11/15 08:14:43;;;;;;;14.05;3.70;;;;;;;10.51;100.00;101321.06;6083485;19;20022;-73
2023/11/15 08:16:48;;;;;;;12.10;2.72;;;;;;;10.52;100.00;101322.75;6083913;19;20577;-76
2023/11/15 08:18:53;;;;;;;16.17;3.22;;;;;;;10.54;100.00;101324.44;6090224;19;20010;-74
2023/11/15 08:20:56;;;;;;;9.38;2.22;;;;;;;10.51;100.00;101335.06;6084519;19;20534;-74
2023/11/15 08:23:02;;;;;;;13.30;3.45;;;;;;;10.57;100.00;101336.63;6089359;19;20584;-73
2023/11/15 08:25:07;;;;;;;9.85;2.65;;;;;;;10.57;100.00;101341.00;6088138;19;20017;-76
2023/11/15 08:27:12;;;;;;;16.25;2.72;;;;;;;10.57;100.00;101331.34;6089416;19;20022;-76
2023/11/15 08:29:17;;;;;;;13.45;3.70;;;;;;;10.54;100.00;101340.19;6084539;19;20361;-76
2023/11/15 08:31:23;;;;;;;11.35;2.95;;;;;;;10.57;100.00;101341.00;6090216;19;20007;-76
2023/11/15 08:33:31;;;;;;;8.20;2.67;;;;;;;10.58;100.00;101340.94;6089038;19;20006;-76
2023/11/15 08:35:36;;;;;;;8.77;3.10;;;;;;;10.60;100.00;101344.41;6093241;19;20086;-73
2023/11/15 08:37:41;;;;;;;14.20;3.45;;;;;;;10.60;100.00;101344.41;6093937;19;20392;-73
2023/11/15 08:39:46;;;;;;;7.60;2.67;;;;;;;10.67;100.00;101353.81;6093183;19;20021;-77
2023/11/15 08:41:51;;;;;;;13.10;2.40;;;;;;;10.69;100.00;101345.84;6091941;19;20533;-75
2023/11/15 08:43:53;;;;;;;14.27;2.63;;;;;;;10.74;100.00;101352.69;6092412;19;20031;-76
2023/11/15 08:46:01;;;;;;;12.93;2.20;;;;;;;10.75;100.00;101354.41;6090803;19;20587;-75
2023/11/15 08:48:08;;;;;;;14.23;3.55;;;;;;;10.75;100.00;101349.16;6091045;19;20432;-77
2023/11/15 08:50:16;;;;;;;13.95;2.65;;;;;;;10.81;100.00;101358.59;6092517;19;20013;-75
2023/11/15 08:52:23;;;;;;;18.23;3.15;;;;;;;10.84;100.00;101355.88;6090858;19;20375;-75
2023/11/15 08:54:28;;;;;;;16.30;2.90;;;;;;;10.86;100.00;101363.72;6088951;19;20023;-73
2023/11/15 08:56:31;;;;;;;16.23;3.17;;;;;;;10.87;100.00;101358.38;6089220;19;20121;-73
2023/11/15 08:58:37;;;;;;;10.88;2.75;;;;;;;10.92;100.00;101359.09;6092732;19;20077;-75
2023/11/15 09:00:43;;;;;;;16.13;3.25;;;;;;;10.97;100.00;101353.69;6090033;19;20543;-76
2023/11/15 09:02:49;;;;;;;15.57;3.65;;;;;;;11.01;100.00;101357.94;6085341;19;20027;-75
2023/11/15 09:04:54;;;;;;;8.10;2.38;;;;;;;11.07;100.00;101362.13;6088292;19;20086;-75
2023/11/15 09:07:01;;;;;;;19.05;3.25;;;;;;;11.11;100.00;101363.72;6086958;19;20038;-75
2023/11/15 09:09:07;;;;;;;7.15;2.58;;;;;;;11.16;100.00;101367.06;6087368;19;20010;-75
2023/11/15 09:11:13;;;;;;;8.68;2.80;;;;;;;11.14;100.00;101361.88;6083340;19;20013;-75
2023/11/15 09:13:18;;;;;;;10.90;2.78;;;;;;;11.12;100.00;101366.31;6090584;19;20507;-76
2023/11/15 09:15:24;;;;;;;10.82;2.58;;;;;;;11.11;100.00;101371.63;6088524;19;20085;-75
2023/11/15 09:17:30;;;;;;;8.52;2.53;;;;;;;11.12;100.00;101376.84;6087631;19;20365;-76
2023/11/15 09:19:37;;;;;;;11.30;2.47;;;;;;;11.14;100.00;101368.91;6084613;19;20003;-76
2023/11/15 09:21:42;;;;;;;12.93;3.00;;;;;;;11.17;100.00;101371.44;6078384;19;20011;-71
2023/11/15 09:23:51;;;;;;;18.52;2.65;;;;;;;11.19;100.00;101373.09;6083754;19;20010;-71
2023/11/15 09:25:58;;;;;;;10.10;2.60;;;;;;;11.16;100.00;101374.94;6086079;19;20742;-74
2023/11/15 09:28:04;;;;;;;13.95;3.10;;;;;;;11.18;100.00;101378.41;6084443;19;20010;-76
2023/11/15 09:30:08;;;;;;;21.55;3.83;;;;;;;11.20;100.00;101372.16;6088897;19;20003;-75
2023/11/15 09:32:13;;;;;;;15.68;3.60;;;;;;;11.23;100.00;101368.56;6084541;19;20345;-71